Airport View

Enter AWOS ICAO identifier for current METAR.

ex. KFNL

KALM 031710Z AUTO 22003KT 10SM CLR 32/08 A3014 RMK AO2

3 Jul 2020 17:12

Frequency: 127.825

Phone: 575-439-4112

Other Area AWOS: KHMN - KSRR - KLRU - KBIF

TAF AMD KHMN 030500Z 0305/0407 18010KT 9999 BKN140 QNH2992INS TS OMTNS BECMG 0307/0308 VRB06KT 9999 SCT140 QNH2995INS BECMG 0315/0316 21012KT 9999 SCT120 QNH3005INS BECMG 0318/0319 23012G20KT 9999 SCT100 QNH3004INS TS OMTNS TEMPO 0320/0401 24015G25KT BECMG 0401/0402 19010G15KT 9999 SCT100 QNH3000INS TX34/0321Z TN20/0313Z LAST NO AMDS AFT 0305 NEXT 0709